createdAt,value
2022-10-07T00:00:58.500Z,10.70
2022-10-07T00:03:26.874Z,10.57
2022-10-07T00:06:01.479Z,10.54
2022-10-07T00:08:29.282Z,10.49
2022-10-07T00:10:56.920Z,10.44
2022-10-07T00:13:27.070Z,10.40
2022-10-07T00:16:03.494Z,10.42
2022-10-07T00:18:31.382Z,10.42
2022-10-07T00:21:13.884Z,10.40
2022-10-07T00:23:44.809Z,10.38
2022-10-07T00:26:14.318Z,10.34
2022-10-07T00:28:44.128Z,10.26
2022-10-07T00:31:22.823Z,10.18
2022-10-07T00:33:50.780Z,10.11
2022-10-07T00:36:20.859Z,10.03
2022-10-07T00:38:56.865Z,9.91
2022-10-07T00:41:26.732Z,9.81
2022-10-07T00:43:54.400Z,9.67
2022-10-07T00:46:27.225Z,9.47
2022-10-07T00:49:01.079Z,9.35
2022-10-07T00:51:29.255Z,9.30
2022-10-07T00:53:56.801Z,9.30
2022-10-07T00:56:24.721Z,9.32
2022-10-07T00:58:52.301Z,9.39
2022-10-07T01:01:20.649Z,9.48
2022-10-07T01:03:48.603Z,9.50
2022-10-07T01:06:16.285Z,9.52
2022-10-07T01:08:44.813Z,9.59
2022-10-07T01:11:31.188Z,9.56
2022-10-07T01:14:24.859Z,9.60
2022-10-07T01:17:11.382Z,9.62
2022-10-07T01:20:09.706Z,9.60
2022-10-07T01:22:44.624Z,9.57
2022-10-07T01:25:29.866Z,9.56
2022-10-07T01:28:20.004Z,9.56
2022-10-07T01:30:50.467Z,9.52
2022-10-07T01:33:19.573Z,9.52
2022-10-07T01:35:48.776Z,9.52
2022-10-07T01:38:23.076Z,9.50
2022-10-07T01:40:55.315Z,9.49
2022-10-07T01:43:24.518Z,9.54
2022-10-07T01:45:52.764Z,9.54
2022-10-07T01:48:20.528Z,9.50
2022-10-07T01:50:48.569Z,9.45
2022-10-07T01:53:35.005Z,9.48
2022-10-07T01:56:10.661Z,9.47
2022-10-07T01:58:44.714Z,9.51
2022-10-07T02:01:38.413Z,9.43
2022-10-07T02:04:11.175Z,9.38
2022-10-07T02:07:05.092Z,9.36
2022-10-07T02:10:01.234Z,9.39
2022-10-07T02:12:46.617Z,9.37
2022-10-07T02:15:17.722Z,9.37
2022-10-07T02:17:49.956Z,9.36
2022-10-07T02:20:17.766Z,9.34
2022-10-07T02:22:45.857Z,9.32
2022-10-07T02:25:14.408Z,9.37
2022-10-07T02:27:43.320Z,9.45
2022-10-07T02:30:15.523Z,9.49
2022-10-07T02:32:47.845Z,9.46
2022-10-07T02:35:21.264Z,9.46
2022-10-07T02:37:49.124Z,9.54
2022-10-07T02:40:16.947Z,9.61
2022-10-07T02:42:51.944Z,9.67
2022-10-07T02:45:29.653Z,9.64
2022-10-07T02:48:23.744Z,9.68
2022-10-07T02:50:53.798Z,9.65
2022-10-07T02:53:21.546Z,9.65
2022-10-07T02:55:49.385Z,9.67
2022-10-07T02:58:16.919Z,9.67
2022-10-07T03:00:47.569Z,9.64
2022-10-07T03:03:16.481Z,9.63
2022-10-07T03:05:58.989Z,9.62
2022-10-07T03:08:28.450Z,9.59
2022-10-07T03:10:57.135Z,9.67
2022-10-07T03:13:26.645Z,9.70
2022-10-07T03:15:58.959Z,9.68
2022-10-07T03:18:28.692Z,9.74
2022-10-07T03:21:16.505Z,9.79
2022-10-07T03:23:44.964Z,9.91
2022-10-07T03:26:13.592Z,9.91
2022-10-07T03:28:41.628Z,9.97
2022-10-07T03:31:11.998Z,9.95
2022-10-07T03:33:44.704Z,9.88
2022-10-07T03:36:13.465Z,9.86
2022-10-07T03:38:43.814Z,9.81
2022-10-07T03:41:12.881Z,9.72
2022-10-07T03:43:42.612Z,9.66
2022-10-07T03:46:11.933Z,9.60
2022-10-07T03:48:40.928Z,9.54
2022-10-07T03:51:09.115Z,9.46
2022-10-07T03:53:38.917Z,9.44
2022-10-07T03:56:07.610Z,9.36
2022-10-07T03:58:36.848Z,9.33
2022-10-07T04:01:07.496Z,9.30
2022-10-07T04:03:38.452Z,9.27
2022-10-07T04:06:07.139Z,9.33
2022-10-07T04:08:36.108Z,9.27
2022-10-07T04:11:05.263Z,9.27
2022-10-07T04:13:34.277Z,9.27
2022-10-07T04:16:09.449Z,9.30
2022-10-07T04:18:37.749Z,9.30
2022-10-07T04:21:06.339Z,9.36
2022-10-07T04:23:36.224Z,9.40
2022-10-07T04:26:12.077Z,9.51
2022-10-07T04:28:43.872Z,9.54
2022-10-07T04:31:14.473Z,9.61
2022-10-07T04:33:46.541Z,9.67
2022-10-07T04:36:20.301Z,9.69
2022-10-07T04:38:53.310Z,9.69
2022-10-07T04:41:26.151Z,9.79
2022-10-07T04:43:57.567Z,9.86
2022-10-07T04:46:30.205Z,9.92
2022-10-07T04:49:03.990Z,10.00
2022-10-07T04:51:32.054Z,10.07
2022-10-07T04:54:01.493Z,10.17
2022-10-07T04:56:52.359Z,10.28
2022-10-07T04:59:25.456Z,10.39
2022-10-07T05:01:56.820Z,10.49
2022-10-07T05:04:25.072Z,10.51
2022-10-07T05:06:54.280Z,10.58
2022-10-07T05:09:22.219Z,10.70
2022-10-07T05:11:55.773Z,10.82
2022-10-07T05:14:24.234Z,10.94
2022-10-07T05:16:54.207Z,11.08
2022-10-07T05:19:28.901Z,11.15
2022-10-07T05:21:56.695Z,11.28
2022-10-07T05:24:26.555Z,11.32
2022-10-07T05:26:54.877Z,11.42
2022-10-07T05:29:22.709Z,11.52
2022-10-07T05:31:52.910Z,11.62
2022-10-07T05:34:24.079Z,11.76
2022-10-07T05:36:53.782Z,11.86
2022-10-07T05:39:22.639Z,12.01
2022-10-07T05:41:53.728Z,12.17
2022-10-07T05:44:26.601Z,12.27
2022-10-07T05:46:57.314Z,12.33
2022-10-07T05:49:25.262Z,12.49
2022-10-07T05:51:52.896Z,12.55
2022-10-07T05:54:21.026Z,12.65
2022-10-07T05:56:48.867Z,12.77
2022-10-07T05:59:19.176Z,12.79
2022-10-07T06:01:47.226Z,12.80
2022-10-07T06:04:20.114Z,12.82
2022-10-07T06:06:49.500Z,12.73
2022-10-07T06:09:39.071Z,12.90
2022-10-07T06:12:31.500Z,12.99
2022-10-07T06:15:02.200Z,12.97
2022-10-07T06:17:30.368Z,13.16
2022-10-07T06:20:02.880Z,13.14
2022-10-07T06:22:32.158Z,13.33
2022-10-07T06:25:02.559Z,13.46
2022-10-07T06:27:32.972Z,13.60
2022-10-07T06:30:00.594Z,13.77
2022-10-07T06:32:32.803Z,13.96
2022-10-07T06:35:01.401Z,14.20
2022-10-07T06:37:32.425Z,14.39
2022-10-07T06:40:00.375Z,14.62
2022-10-07T06:42:31.733Z,14.73
2022-10-07T06:45:19.298Z,14.91
2022-10-07T06:47:50.019Z,14.91
2022-10-07T06:50:17.993Z,15.02
2022-10-07T06:52:45.627Z,15.12
2022-10-07T06:55:13.704Z,15.23
2022-10-07T06:57:45.789Z,15.36
2022-10-07T07:00:15.938Z,15.49
2022-10-07T07:02:45.014Z,15.60
2022-10-07T07:05:16.238Z,15.76
2022-10-07T07:07:46.465Z,15.84
2022-10-07T07:10:15.259Z,15.96
2022-10-07T07:12:49.018Z,16.08
2022-10-07T07:15:17.623Z,16.25
2022-10-07T07:17:45.367Z,16.33
2022-10-07T07:20:14.814Z,16.46
2022-10-07T07:22:44.336Z,16.54
2022-10-07T07:25:12.269Z,16.62
2022-10-07T07:27:40.306Z,16.66
2022-10-07T07:30:10.421Z,16.75
2022-10-07T07:32:38.264Z,16.83
2022-10-07T07:35:07.025Z,16.84
2022-10-07T07:37:34.633Z,16.98
2022-10-07T07:40:03.146Z,17.10
2022-10-07T07:42:32.865Z,17.13
2022-10-07T07:45:00.933Z,17.25
2022-10-07T07:47:28.556Z,17.37
2022-10-07T07:49:56.827Z,17.48
2022-10-07T07:52:31.973Z,17.63
2022-10-07T07:55:03.295Z,17.74
2022-10-07T07:57:31.700Z,17.85
2022-10-07T08:00:05.529Z,17.83
2022-10-07T08:02:42.424Z,17.89
2022-10-07T08:05:14.928Z,17.93
2022-10-07T08:07:42.690Z,17.99
2022-10-07T08:10:13.158Z,18.10
2022-10-07T08:12:41.184Z,18.05
2022-10-07T08:15:10.936Z,18.14
2022-10-07T08:17:41.318Z,18.17
2022-10-07T08:20:10.925Z,18.14
2022-10-07T08:22:45.986Z,18.19
2022-10-07T08:25:15.361Z,18.22
2022-10-07T08:27:44.576Z,18.32
2022-10-07T08:30:13.449Z,18.33
2022-10-07T08:32:41.406Z,18.40
2022-10-07T08:35:09.602Z,18.39
2022-10-07T08:37:37.314Z,18.56
2022-10-07T08:40:05.742Z,18.76
2022-10-07T08:42:35.389Z,18.70
2022-10-07T08:45:03.263Z,18.51
2022-10-07T08:47:45.600Z,18.70
2022-10-07T08:50:20.170Z,18.93
2022-10-07T08:53:03.226Z,18.89
2022-10-07T08:55:39.716Z,18.89
2022-10-07T08:58:32.183Z,19.02
2022-10-07T09:01:15.637Z,19.10
2022-10-07T09:04:06.355Z,19.17
2022-10-07T09:07:10.105Z,19.13
2022-10-07T09:09:56.148Z,19.32
2022-10-07T09:12:49.768Z,19.36
2022-10-07T09:15:32.892Z,19.47
2022-10-07T09:18:03.861Z,19.32
2022-10-07T09:20:35.155Z,19.47
2022-10-07T09:23:04.794Z,19.60
2022-10-07T09:25:34.219Z,19.72
2022-10-07T09:28:01.906Z,19.73
2022-10-07T09:30:29.758Z,19.71
2022-10-07T09:32:57.402Z,19.88
2022-10-07T09:35:27.105Z,19.88
2022-10-07T09:37:55.826Z,19.61
2022-10-07T09:40:33.808Z,19.77
2022-10-07T09:43:01.514Z,19.78
2022-10-07T09:45:33.022Z,19.86
2022-10-07T09:48:08.491Z,19.96
2022-10-07T09:50:38.409Z,20.07
2022-10-07T09:53:16.455Z,19.88
2022-10-07T09:55:44.142Z,19.86
2022-10-07T09:58:21.533Z,19.85
2022-10-07T10:00:50.421Z,20.14
2022-10-07T10:03:18.657Z,20.04
2022-10-07T10:06:00.488Z,20.02
2022-10-07T10:08:43.920Z,20.22
2022-10-07T10:11:20.896Z,20.20
2022-10-07T10:13:49.587Z,20.29
2022-10-07T10:16:37.653Z,20.72
2022-10-07T10:19:27.199Z,20.64
2022-10-07T10:21:59.497Z,20.69
2022-10-07T10:24:47.708Z,20.40
2022-10-07T10:27:21.419Z,20.33
2022-10-07T10:30:22.001Z,20.67
2022-10-07T10:32:53.634Z,21.06
2022-10-07T10:35:53.810Z,21.18
2022-10-07T10:38:26.933Z,20.88
2022-10-07T10:40:59.392Z,20.52
2022-10-07T10:44:00.627Z,20.70
2022-10-07T10:46:52.583Z,21.01
2022-10-07T10:49:29.222Z,21.18
2022-10-07T10:52:20.517Z,20.84
2022-10-07T10:55:13.667Z,20.46
2022-10-07T10:58:08.067Z,20.16
2022-10-07T11:00:45.413Z,20.29
2022-10-07T11:03:41.666Z,20.53
2022-10-07T11:06:11.044Z,20.85
2022-10-07T11:08:39.066Z,21.06
2022-10-07T11:13:37.711Z,20.81
2022-10-07T11:16:10.057Z,20.91
2022-10-07T11:19:05.341Z,20.63
2022-10-07T11:21:45.055Z,20.16
2022-10-07T11:24:34.574Z,19.83
2022-10-07T11:27:26.140Z,19.85
2022-10-07T11:29:56.735Z,20.27
2022-10-07T11:32:46.233Z,20.64
2022-10-07T11:35:22.249Z,20.84
2022-10-07T11:38:09.959Z,20.85
2022-10-07T11:41:08.641Z,21.19
2022-10-07T11:43:45.423Z,21.36
2022-10-07T11:46:33.219Z,21.57
2022-10-07T11:49:23.702Z,21.69
2022-10-07T11:52:12.106Z,21.15
2022-10-07T11:54:42.789Z,20.74
2022-10-07T11:57:22.505Z,21.35
2022-10-07T12:00:01.723Z,21.78
2022-10-07T12:02:29.764Z,22.25
2022-10-07T12:05:01.403Z,22.12
2022-10-07T12:08:02.405Z,21.47
2022-10-07T12:10:32.028Z,21.05
2022-10-07T12:13:11.147Z,21.26
2022-10-07T12:15:42.369Z,21.49
2022-10-07T12:18:20.153Z,21.98
2022-10-07T12:20:50.608Z,22.26
2022-10-07T12:23:20.892Z,22.58
2022-10-07T12:25:53.567Z,21.78
2022-10-07T12:28:24.454Z,21.24
2022-10-07T12:30:53.636Z,21.01
2022-10-07T12:33:43.412Z,21.00
2022-10-07T12:36:22.896Z,21.18
2022-10-07T12:38:57.601Z,21.33
2022-10-07T12:41:25.812Z,21.29
2022-10-07T12:43:59.204Z,22.05
2022-10-07T12:46:29.699Z,22.55
2022-10-07T12:49:14.147Z,22.74
2022-10-07T12:51:41.703Z,22.99
2022-10-07T12:54:20.208Z,22.96
2022-10-07T12:56:49.920Z,22.91
2022-10-07T12:59:47.892Z,22.74
2022-10-07T13:02:36.426Z,22.52
2022-10-07T13:05:10.091Z,23.11
2022-10-07T13:07:50.032Z,23.45
2022-10-07T13:10:35.734Z,23.65
2022-10-07T13:13:07.749Z,23.94
2022-10-07T13:15:47.897Z,23.76
2022-10-07T13:18:20.114Z,23.49
2022-10-07T13:20:54.501Z,22.90
2022-10-07T13:23:26.960Z,23.05
2022-10-07T13:25:56.336Z,23.23
2022-10-07T13:28:25.416Z,23.40
2022-10-07T13:30:53.416Z,23.24
2022-10-07T13:33:31.764Z,23.66
2022-10-07T13:36:11.658Z,23.15
2022-10-07T13:38:40.118Z,22.82
2022-10-07T13:41:23.304Z,22.79
2022-10-07T13:43:54.834Z,22.53
2022-10-07T13:46:25.804Z,21.97
2022-10-07T13:48:56.421Z,22.25
2022-10-07T13:51:37.547Z,22.36
2022-10-07T13:54:06.623Z,22.59
2022-10-07T13:56:43.447Z,22.41
2022-10-07T13:59:18.155Z,22.55
2022-10-07T14:01:56.841Z,22.87
2022-10-07T14:04:34.481Z,22.51
2022-10-07T14:07:13.126Z,22.50
2022-10-07T14:09:50.753Z,22.44
2022-10-07T14:12:25.009Z,22.46
2022-10-07T14:14:55.792Z,22.44
2022-10-07T14:17:32.738Z,21.99
2022-10-07T14:20:05.857Z,21.65
2022-10-07T14:22:38.720Z,21.92
2022-10-07T14:25:07.793Z,21.82
2022-10-07T14:27:39.791Z,21.77
2022-10-07T14:30:29.250Z,21.36
2022-10-07T14:33:27.938Z,20.85
2022-10-07T14:36:27.031Z,20.13
2022-10-07T14:38:58.303Z,20.16
2022-10-07T14:41:29.388Z,20.05
2022-10-07T14:44:00.474Z,19.63
2022-10-07T14:46:28.520Z,19.27
2022-10-07T14:48:56.543Z,18.93
2022-10-07T14:51:27.101Z,18.78
2022-10-07T14:54:06.013Z,18.48
2022-10-07T14:56:35.777Z,18.22
2022-10-07T14:59:03.295Z,18.01
2022-10-07T15:01:31.434Z,17.85
2022-10-07T15:03:59.132Z,17.69
2022-10-07T15:06:26.831Z,17.53
2022-10-07T15:08:56.939Z,17.36
2022-10-07T15:11:24.523Z,17.18
2022-10-07T15:13:52.087Z,16.97
2022-10-07T15:16:26.781Z,16.74
2022-10-07T15:18:54.701Z,16.47
2022-10-07T15:21:22.404Z,16.32
2022-10-07T15:23:53.592Z,16.20
2022-10-07T15:26:24.006Z,16.01
2022-10-07T15:28:56.532Z,15.74
2022-10-07T15:31:27.599Z,15.57
2022-10-07T15:33:58.122Z,15.42
2022-10-07T15:36:29.245Z,15.22
2022-10-07T15:38:59.045Z,15.02
2022-10-07T15:41:33.927Z,14.87
2022-10-07T15:44:04.632Z,14.70
2022-10-07T15:46:32.487Z,14.52
2022-10-07T15:49:00.372Z,14.42
2022-10-07T15:51:28.129Z,14.42
2022-10-07T15:53:55.713Z,14.42
2022-10-07T15:56:25.585Z,14.43
2022-10-07T15:58:54.709Z,14.37
2022-10-07T16:01:22.552Z,14.33
2022-10-07T16:03:50.221Z,14.20
2022-10-07T16:06:23.699Z,14.17
2022-10-07T16:08:52.200Z,14.12
2022-10-07T16:11:19.780Z,14.02
2022-10-07T16:13:48.318Z,14.03
2022-10-07T16:16:22.743Z,13.97
2022-10-07T16:18:51.359Z,13.81
2022-10-07T16:21:24.353Z,13.62
2022-10-07T16:23:54.899Z,13.42
2022-10-07T16:26:25.796Z,13.22
2022-10-07T16:29:12.383Z,13.07
2022-10-07T16:31:40.993Z,12.98
2022-10-07T16:34:09.950Z,12.92
2022-10-07T16:36:42.085Z,12.85
2022-10-07T16:39:12.570Z,12.76
2022-10-07T16:41:41.776Z,12.65
2022-10-07T16:44:13.138Z,12.44
2022-10-07T16:46:41.629Z,12.34
2022-10-07T16:49:12.527Z,12.20
2022-10-07T16:51:40.262Z,12.05
2022-10-07T16:54:13.838Z,11.95
2022-10-07T16:56:42.469Z,11.85
2022-10-07T16:59:10.757Z,11.77
2022-10-07T17:01:39.496Z,11.67
2022-10-07T17:04:09.565Z,11.67
2022-10-07T17:06:37.277Z,11.56
2022-10-07T17:09:04.885Z,11.47
2022-10-07T17:11:33.673Z,11.43
2022-10-07T17:14:01.900Z,11.41
2022-10-07T17:16:37.969Z,11.34
2022-10-07T17:19:06.552Z,11.28
2022-10-07T17:21:36.300Z,11.26
2022-10-07T17:24:04.447Z,11.15
2022-10-07T17:26:32.212Z,11.11
2022-10-07T17:29:02.205Z,11.07
2022-10-07T17:31:30.730Z,10.99
2022-10-07T17:33:58.723Z,10.89
2022-10-07T17:36:26.941Z,10.88
2022-10-07T17:38:54.628Z,10.85
2022-10-07T17:41:26.983Z,10.81
2022-10-07T17:43:56.515Z,10.79
2022-10-07T17:46:26.135Z,10.73
2022-10-07T17:48:57.752Z,10.62
2022-10-07T17:51:27.587Z,10.56
2022-10-07T17:53:56.580Z,10.50
2022-10-07T17:56:24.218Z,10.44
2022-10-07T17:58:51.836Z,10.42
2022-10-07T18:01:24.247Z,10.38
2022-10-07T18:03:53.490Z,10.31
2022-10-07T18:06:25.749Z,10.29
2022-10-07T18:08:53.887Z,10.23
2022-10-07T18:11:21.464Z,10.17
2022-10-07T18:14:08.162Z,10.13
2022-10-07T18:16:35.890Z,10.11
2022-10-07T18:19:03.711Z,10.07
2022-10-07T18:21:31.614Z,10.03
2022-10-07T18:23:59.318Z,9.95
2022-10-07T18:26:29.073Z,9.85
2022-10-07T18:28:57.660Z,9.86
2022-10-07T18:31:26.543Z,9.81
2022-10-07T18:33:54.200Z,9.79
2022-10-07T18:36:22.549Z,9.75
2022-10-07T18:38:50.228Z,9.73
2022-10-07T18:41:18.010Z,9.71
2022-10-07T18:43:46.328Z,9.68
2022-10-07T18:46:18.257Z,9.74
2022-10-07T18:48:48.176Z,9.74
2022-10-07T18:51:15.919Z,9.71
2022-10-07T18:53:44.645Z,9.65
2022-10-07T18:56:22.898Z,9.58
2022-10-07T18:58:51.626Z,9.52
2022-10-07T19:01:23.684Z,9.47
2022-10-07T19:03:55.765Z,9.43
2022-10-07T19:06:24.252Z,9.40
2022-10-07T19:08:59.101Z,9.38
2022-10-07T19:11:30.621Z,9.44
2022-10-07T19:13:59.337Z,9.45
2022-10-07T19:16:37.334Z,9.45
2022-10-07T19:19:12.112Z,9.39
2022-10-07T19:21:40.564Z,9.37
2022-10-07T19:24:08.131Z,9.34
2022-10-07T19:26:38.744Z,9.33
2022-10-07T19:29:11.141Z,9.27
2022-10-07T19:31:41.509Z,9.23
2022-10-07T19:34:13.761Z,9.17
2022-10-07T19:36:47.190Z,9.16
2022-10-07T19:39:16.188Z,9.11
2022-10-07T19:41:44.263Z,9.07
2022-10-07T19:44:13.285Z,8.99
2022-10-07T19:46:43.965Z,8.97
2022-10-07T19:49:12.661Z,8.95
2022-10-07T19:51:42.058Z,9.03
2022-10-07T19:54:13.347Z,9.00
2022-10-07T19:56:41.893Z,8.99
2022-10-07T19:59:11.180Z,8.99
2022-10-07T20:01:43.579Z,8.94
2022-10-07T20:04:15.967Z,8.83
2022-10-07T20:06:44.001Z,8.76
2022-10-07T20:09:15.189Z,8.73
2022-10-07T20:11:53.405Z,8.66
2022-10-07T20:14:21.669Z,8.60
2022-10-07T20:16:49.287Z,8.59
2022-10-07T20:19:18.709Z,8.57
2022-10-07T20:21:48.239Z,8.52
2022-10-07T20:24:16.618Z,8.48
2022-10-07T20:26:45.044Z,8.40
2022-10-07T20:29:14.008Z,8.38
2022-10-07T20:31:41.934Z,8.38
2022-10-07T20:34:13.340Z,8.43
2022-10-07T20:36:42.137Z,8.44
2022-10-07T20:39:38.350Z,8.49
2022-10-07T20:42:21.333Z,8.39
2022-10-07T20:44:49.395Z,8.30
2022-10-07T20:47:18.053Z,8.27
2022-10-07T20:49:45.945Z,8.24
2022-10-07T20:52:17.672Z,8.20
2022-10-07T20:54:46.148Z,8.15
2022-10-07T20:57:16.502Z,8.06
2022-10-07T20:59:44.183Z,8.03
2022-10-07T21:02:13.731Z,7.98
2022-10-07T21:04:41.534Z,7.93
2022-10-07T21:07:10.174Z,7.89
2022-10-07T21:09:41.127Z,7.83
2022-10-07T21:12:13.899Z,7.81
2022-10-07T21:14:44.896Z,7.79
2022-10-07T21:17:18.007Z,7.78
2022-10-07T21:19:45.880Z,7.76
2022-10-07T21:22:13.520Z,7.68
2022-10-07T21:24:42.247Z,7.66
2022-10-07T21:27:10.017Z,7.63
2022-10-07T21:29:40.808Z,7.57
2022-10-07T21:32:10.227Z,7.57
2022-10-07T21:34:38.343Z,7.53
2022-10-07T21:37:05.999Z,7.51
2022-10-07T21:39:33.857Z,7.45
2022-10-07T21:42:02.264Z,7.40
2022-10-07T21:44:33.528Z,7.35
2022-10-07T21:47:01.311Z,7.31
2022-10-07T21:49:29.465Z,7.28
2022-10-07T21:51:57.092Z,7.24
2022-10-07T21:54:26.340Z,7.21
2022-10-07T21:56:54.287Z,7.16
2022-10-07T21:59:21.797Z,7.13
2022-10-07T22:01:49.804Z,7.13
2022-10-07T22:04:17.996Z,7.17
2022-10-07T22:07:04.421Z,7.13
2022-10-07T22:09:32.456Z,7.09
2022-10-07T22:12:02.611Z,7.06
2022-10-07T22:14:30.401Z,7.03
2022-10-07T22:17:00.119Z,7.02
2022-10-07T22:19:28.081Z,7.00
2022-10-07T22:21:57.231Z,6.97
2022-10-07T22:24:25.024Z,6.95
2022-10-07T22:26:52.677Z,6.92
2022-10-07T22:29:21.874Z,6.89
2022-10-07T22:31:49.500Z,6.91
2022-10-07T22:34:35.618Z,6.91
2022-10-07T22:37:04.494Z,6.86
2022-10-07T22:39:32.084Z,6.88
2022-10-07T22:42:01.200Z,6.88
2022-10-07T22:44:29.058Z,6.90
2022-10-07T22:46:56.938Z,6.88
2022-10-07T22:49:29.605Z,6.85
2022-10-07T22:51:59.897Z,6.77
2022-10-07T22:54:27.832Z,6.71
2022-10-07T22:56:58.129Z,6.70
2022-10-07T22:59:25.915Z,6.66
2022-10-07T23:01:53.606Z,6.64
2022-10-07T23:04:21.737Z,6.64
2022-10-07T23:06:49.935Z,6.59
2022-10-07T23:09:17.628Z,6.56
2022-10-07T23:11:45.999Z,6.52
2022-10-07T23:14:15.228Z,6.56
2022-10-07T23:16:44.445Z,6.52
2022-10-07T23:19:12.055Z,6.49
2022-10-07T23:21:39.743Z,6.45
2022-10-07T23:24:10.197Z,6.41
2022-10-07T23:26:38.543Z,6.37
2022-10-07T23:29:07.698Z,6.35
2022-10-07T23:31:38.359Z,6.37
2022-10-07T23:34:06.646Z,6.35
2022-10-07T23:36:35.195Z,6.34
2022-10-07T23:39:03.461Z,6.35
2022-10-07T23:41:31.544Z,6.30
2022-10-07T23:44:00.837Z,6.27
2022-10-07T23:46:28.936Z,6.27
2022-10-07T23:48:56.577Z,6.26
2022-10-07T23:51:25.332Z,6.26
2022-10-07T23:53:53.010Z,6.26
2022-10-07T23:56:20.964Z,6.25
2022-10-07T23:58:48.679Z,6.25
